Terminal Aerodrome Forecast
Issued by NWS Nashville, TN

Home | Current Version | Previous Version | Text Only | Print | Product List | Glossary On
Versions: 1 2 3 4 5 6 7 8 9 10 11 12 13 14 15 16 17 18 19 20
000
FTUS44 KOHX 230400 AAD
TAFBNA
TAF AMD
KBNA 230433Z 2305/2324 16012KT P6SM VCSH OVC011
      TEMPO 2308/2312 3SM -SHRA BR OVC009
     FM231500 16006KT 2SM -SHRA BR OVC007
     FM231800 16008KT 4SM -SHRA BR VCTS BKN007CB OVC015=

USA.gov is the U.S. government's official web portal to all federal, state and local government web resources and services.